Westwood Rainier — C6SI3 — position and weather

sailwx.info

Track history (hours):
 
Tides and Currents Weather Stations Pressure Air Temp Water Temp Dewpoint Dewpoint Depression Visibility Wind Speed Wind Dir Waves Ship Positions

Westwood Rainier

Last reported at 2017-Jan-23 16:32 UTC. Time now 2017-Jan-23 16:49 UTC.
Position N 49°17' W 123°06'.

Type: Cargo ship. MMSI: 311348993.

Date/timePositionNaut miles runAvg speedWind from/ knotsBaromVisibWave heightAir tempDewpointWater temp
2017-Jan-23 16:32N 49°17' W 123°06'0 0.0
2017-Jan-23 15:32N 49°17' W 123°06'0 0.0
2017-Jan-23 14:32N 49°17' W 123°06'0 0.0
2017-Jan-23 13:32N 49°17' W 123°06'0 0.0
2017-Jan-23 12:32N 49°17' W 123°06'1 1.2
2017-Jan-23 11:33N 49°18' W 123°07'1010.2
2017-Jan-23 10:33N 49°12' W 123°20'1414.3
2017-Jan-23 09:33N 48°59' W 123°12'1414.4
2017-Jan-23 08:34N 48°46' W 123°03'1313.0
2017-Jan-23 07:33N 48°35' W 123°13'1313.3
2017-Jan-23 06:33N 48°22' W 123°19'1010.0
2017-Jan-23 05:33N 48°14' W 123°27'9 8.7
2017-Jan-23 04:33N 48°10' W 123°15'1414.0
2017-Jan-23 03:33N 48°12' W 122°54'1615.7
2017-Jan-23 02:33N 48°01' W 122°37'1312.6
2017-Jan-23 01:33N 47°55' W 122°21'6 1.9
2017-Jan-22 22:25N 47°59' W 122°13'0 0.0
2017-Jan-22 20:10N 47°59' W 122°13'0 0.0
2017-Jan-22 19:31N 47°59' W 122°13'0 0.0
2017-Jan-22 18:19N 47°59' W 122°13'0 0.0
2017-Jan-22 17:28N 47°59' W 122°13'0 0.0
2017-Jan-22 16:28N 47°59' W 122°13'0 0.0
2017-Jan-22 15:28N 47°59' W 122°13'0 0.0
2017-Jan-22 14:31N 47°59' W 122°13'0 0.0
2017-Jan-22 13:31N 47°59' W 122°13'0 0.0
2017-Jan-22 12:28N 47°59' W 122°13'0 0.0
2017-Jan-22 11:28N 47°59' W 122°13'0 0.0
2017-Jan-22 10:31N 47°59' W 122°13'0 0.0
2017-Jan-22 09:28N 47°59' W 122°13'0 0.0
2017-Jan-22 08:28N 47°59' W 122°13'0 0.0
2017-Jan-22 07:28N 47°59' W 122°13'0 0.0
2017-Jan-22 06:28N 47°59' W 122°13'0 0.0
2017-Jan-22 05:28N 47°59' W 122°13'0 0.0
2017-Jan-22 03:28N 47°59' W 122°13'0 0.0
2017-Jan-22 01:16N 47°59' W 122°13'0 0.0
2017-Jan-22 00:16N 47°59' W 122°13'0 0.0
2017-Jan-21 23:25N 47°59' W 122°13'0 0.0
2017-Jan-21 22:28N 47°59' W 122°13'0 0.4
2017-Jan-21 21:33N 47°59' W 122°14'8 8.4
2017-Jan-21 20:33N 47°53' W 122°23'1413.8
2017-Jan-21 19:33N 48°02' W 122°39'1413.7
2017-Jan-21 18:33N 48°11' W 122°53'1716.7
2017-Jan-21 17:33N 48°11' W 123°18'1413.4
2017-Jan-21 16:33N 48°13' W 123°38'1717.1
2017-Jan-21 15:33N 48°16' W 124°03'1717.1
2017-Jan-21 14:33N 48°23' W 124°27'1615.8
2017-Jan-21 13:32N 48°29' W 124°50'1515.0
2017-Jan-21 12:34N 48°29' W 125°12'611.0
2017-Jan-21 12:00N 48°24' W 125°18'1329.5 180 / 21989.0 5.4 9.0 4.5
2017-Jan-21 11:34N 48°33' W 125°31'1414.3
2017-Jan-21 10:34N 48°41' W 125°50'1414.2
2017-Jan-21 09:33N 48°49' W 126°08'1414.1
2017-Jan-21 08:33N 48°56' W 126°27'12014.0
2017-Jan-21 00:00N 49°48' W 129°12'16713.9 090 / 14985.5 5.4 9.0 6.9
2017-Jan-20 12:00N 50°54' W 133°12'36215.1 110 / 20988.5 5.4 7.0 7.0
2017-Jan-19 12:00N 52°42' W 142°30'9415.6 040 / 8991.0 5.4 8.0 0.5
2017-Jan-19 06:00N 53°06' W 145°00'9816.3 320 / 15990.5 5.4 3.0 0.3
2017-Jan-19 00:00N 53°18' W 147°42'16914.1 050 / 12989.0 5.4 4.0-5.1
2017-Jan-18 12:00N 53°36' W 152°24'16013.4 070 / 24981.0 5.4 4.0 1.4
2017-Jan-18 00:00N 53°48' W 156°54'8213.6 050 / 29982.0 1.1 -0.0-0.0
2017-Jan-17 18:00N 53°54' W 159°12'8514.2 050 / 25986.6 5.4 -1.0-1.1
2017-Jan-17 12:00N 54°00' W 161°36'18015.0 050 / 16990.0 5.4 -2.0-2.3
2017-Jan-17 00:00N 54°18' W 166°42'9515.8 050 / 10993.0 5.4 -1.0-1.1
2017-Jan-16 18:00N 54°18' W 169°24'19015.8 090 / 15995.5 5.4 -2.0-2.3
2017-Jan-16 06:00N 54°06' W 174°48'9515.9 140 / 20999.0 5.4 -2.0-2.3
2017-Jan-16 00:00N 54°00' W 177°30'9215.3 090 / 251001.8 5.4 -2.0-2.3
2017-Jan-15 18:00N 54°00' E 179°54'17714.7 090 / 221003.9 5.4 -3.0-3.4
2017-Jan-15 06:00N 53°54' E 174°54'7813.0 090 / 251009.7 5.4 -2.0-2.3
2017-Jan-15 00:00N 53°54' E 172°42'6210.3 090 / 251012.5 5.4 -1.0-1.1
2017-Jan-14 18:00N 53°30' E 171°06'90 7.5 090 / 301014.6 2.2 1.0-1.7
2017-Jan-14 06:00N 52°54' E 168°48'21936.4 090 / 451014.0 2.2 1.0-1.9
2017-Jan-14 00:00N 52°36' E 162°48'13822.9 090 / 401013.1 5.4 -0.0-0.0
2017-Jan-13 18:00N 52°12' E 166°30'   090 / 451010.9 5.4 2.0-3.6
Track history (hours):
 
Tides and Currents Weather Stations Pressure Air Temp Water Temp Dewpoint Dewpoint Depression Visibility Wind Speed Wind Dir Waves Ship Positions

Westwood Rainier

Last reported at 2017-Jan-23 16:32 UTC. Time now 2017-Jan-23 16:49 UTC.
Position N 49°17' W 123°06'.

Type: Cargo ship. MMSI: 311348993.

Date/timePositionNaut miles runAvg speedWind from/ knotsBaromVisibWave heightAir tempDewpointWater temp
2017-Jan-23 16:32N 49°17' W 123°06'0 0.0
2017-Jan-23 15:32N 49°17' W 123°06'0 0.0
2017-Jan-23 14:32N 49°17' W 123°06'0 0.0
2017-Jan-23 13:32N 49°17' W 123°06'0 0.0
2017-Jan-23 12:32N 49°17' W 123°06'1 1.2
2017-Jan-23 11:33N 49°18' W 123°07'1010.2
2017-Jan-23 10:33N 49°12' W 123°20'1414.3
2017-Jan-23 09:33N 48°59' W 123°12'1414.4
2017-Jan-23 08:34N 48°46' W 123°03'1313.0
2017-Jan-23 07:33N 48°35' W 123°13'1313.3
2017-Jan-23 06:33N 48°22' W 123°19'1010.0
2017-Jan-23 05:33N 48°14' W 123°27'9 8.7
2017-Jan-23 04:33N 48°10' W 123°15'1414.0
2017-Jan-23 03:33N 48°12' W 122°54'1615.7
2017-Jan-23 02:33N 48°01' W 122°37'1312.6
2017-Jan-23 01:33N 47°55' W 122°21'6 1.9
2017-Jan-22 22:25N 47°59' W 122°13'0 0.0
2017-Jan-22 20:10N 47°59' W 122°13'0 0.0
2017-Jan-22 19:31N 47°59' W 122°13'0 0.0
2017-Jan-22 18:19N 47°59' W 122°13'0 0.0
2017-Jan-22 17:28N 47°59' W 122°13'0 0.0
2017-Jan-22 16:28N 47°59' W 122°13'0 0.0
2017-Jan-22 15:28N 47°59' W 122°13'0 0.0
2017-Jan-22 14:31N 47°59' W 122°13'0 0.0
2017-Jan-22 13:31N 47°59' W 122°13'0 0.0
2017-Jan-22 12:28N 47°59' W 122°13'0 0.0
2017-Jan-22 11:28N 47°59' W 122°13'0 0.0
2017-Jan-22 10:31N 47°59' W 122°13'0 0.0
2017-Jan-22 09:28N 47°59' W 122°13'0 0.0
2017-Jan-22 08:28N 47°59' W 122°13'0 0.0
2017-Jan-22 07:28N 47°59' W 122°13'0 0.0
2017-Jan-22 06:28N 47°59' W 122°13'0 0.0
2017-Jan-22 05:28N 47°59' W 122°13'0 0.0
2017-Jan-22 03:28N 47°59' W 122°13'0 0.0
2017-Jan-22 01:16N 47°59' W 122°13'0 0.0
2017-Jan-22 00:16N 47°59' W 122°13'0 0.0
2017-Jan-21 23:25N 47°59' W 122°13'0 0.0
2017-Jan-21 22:28N 47°59' W 122°13'0 0.4
2017-Jan-21 21:33N 47°59' W 122°14'8 8.4
2017-Jan-21 20:33N 47°53' W 122°23'1413.8
2017-Jan-21 19:33N 48°02' W 122°39'1413.7
2017-Jan-21 18:33N 48°11' W 122°53'1716.7
2017-Jan-21 17:33N 48°11' W 123°18'1413.4
2017-Jan-21 16:33N 48°13' W 123°38'1717.1
2017-Jan-21 15:33N 48°16' W 124°03'1717.1
2017-Jan-21 14:33N 48°23' W 124°27'1615.8
2017-Jan-21 13:32N 48°29' W 124°50'1515.0
2017-Jan-21 12:34N 48°29' W 125°12'611.0
2017-Jan-21 12:00N 48°24' W 125°18'1329.5 180 / 21989.0 5.4 9.0 4.5
2017-Jan-21 11:34N 48°33' W 125°31'1414.3
2017-Jan-21 10:34N 48°41' W 125°50'1414.2
2017-Jan-21 09:33N 48°49' W 126°08'1414.1
2017-Jan-21 08:33N 48°56' W 126°27'12014.0
2017-Jan-21 00:00N 49°48' W 129°12'16713.9 090 / 14985.5 5.4 9.0 6.9
2017-Jan-20 12:00N 50°54' W 133°12'36215.1 110 / 20988.5 5.4 7.0 7.0
2017-Jan-19 12:00N 52°42' W 142°30'9415.6 040 / 8991.0 5.4 8.0 0.5
2017-Jan-19 06:00N 53°06' W 145°00'9816.3 320 / 15990.5 5.4 3.0 0.3
2017-Jan-19 00:00N 53°18' W 147°42'16914.1 050 / 12989.0 5.4 4.0-5.1
2017-Jan-18 12:00N 53°36' W 152°24'16013.4 070 / 24981.0 5.4 4.0 1.4
2017-Jan-18 00:00N 53°48' W 156°54'8213.6 050 / 29982.0 1.1 -0.0-0.0
2017-Jan-17 18:00N 53°54' W 159°12'8514.2 050 / 25986.6 5.4 -1.0-1.1
2017-Jan-17 12:00N 54°00' W 161°36'18015.0 050 / 16990.0 5.4 -2.0-2.3
2017-Jan-17 00:00N 54°18' W 166°42'9515.8 050 / 10993.0 5.4 -1.0-1.1
2017-Jan-16 18:00N 54°18' W 169°24'19015.8 090 / 15995.5 5.4 -2.0-2.3
2017-Jan-16 06:00N 54°06' W 174°48'9515.9 140 / 20999.0 5.4 -2.0-2.3
2017-Jan-16 00:00N 54°00' W 177°30'9215.3 090 / 251001.8 5.4 -2.0-2.3
2017-Jan-15 18:00N 54°00' E 179°54'17714.7 090 / 221003.9 5.4 -3.0-3.4
2017-Jan-15 06:00N 53°54' E 174°54'7813.0 090 / 251009.7 5.4 -2.0-2.3
2017-Jan-15 00:00N 53°54' E 172°42'6210.3 090 / 251012.5 5.4 -1.0-1.1
2017-Jan-14 18:00N 53°30' E 171°06'90 7.5 090 / 301014.6 2.2 1.0-1.7
2017-Jan-14 06:00N 52°54' E 168°48'21936.4 090 / 451014.0 2.2 1.0-1.9
2017-Jan-14 00:00N 52°36' E 162°48'13822.9 090 / 401013.1 5.4 -0.0-0.0
2017-Jan-13 18:00N 52°12' E 166°30'   090 / 451010.9 5.4 2.0-3.6

Dump ship's entire track history